Commercial Aircraft Repair Capability List for B747 All Series

Part Number's List for Model B747 All Series

Our mission is to provide aircraft repair components like Light Assy, Shut-Off Valve, Housing & Support-Matched Set, Stator Housing, Electrical Harness for model number B747 All Series with outstanding customer support at lowest price to meets the needs. The top 5 selling parts for aircraft model number B747 All Series is 75-0149-9, 752000-1, 752000-2, 756605A, 756829A. We have largest database of aviation repair parts from leading manufacturers such as Honeywell/Grimes Aerospace, Hamilton Sundstrand, Parker Hannifin, Linearmotion, Eldec Corporation . Select or search for your desired parts and fill the basic details to get an instant quote back within 15 minutes.


Part No Manufacturer Description Cage Code CMM RFQ
75-0149-9 honeywell/grimes aerospace light assy 72914 33-10-57 RFQ
752000-1 hamilton sundstrand shut-off valve 99167 21-61-08 RFQ
752000-2 hamilton sundstrand shut-off valve 99167 21-61-08 RFQ
756605A hamilton sundstrand housing & support-matched set 99167 24-17-08 RFQ
756829A hamilton sundstrand stator housing 99167 24-17-09 RFQ
757811 hamilton sundstrand electrical harness 99167 24-18-03 RFQ
763775C hamilton sundstrand electrical harness 99167 24-18-03 RFQ
77144 parker hannifin control module 92003 32-53-01 RFQ
77144-01 parker hannifin control module 92003 32-53-01 RFQ
77144-02 parker hannifin control module 92003 32-53-01 RFQ
77144-04 parker hannifin control module 92003 32-53-01 RFQ
773856-12 hamilton sundstrand intermediate pressure check valve 99167 36-12-06 RFQ
773856-3 hamilton sundstrand intermediate pressure check valve 99167 36-12-06 RFQ
773856-4 hamilton sundstrand intermediate pressure check valve 99167 36-12-06 RFQ
773856-6 hamilton sundstrand intermediate pressure check valve 99167 36-12-06 RFQ
7822105 linearmotion ball screw assy 0A335 27-51-33 RFQ
7822106 linearmotion ball screw assy 0A335 27-51-33 RFQ
7822107 linearmotion ball screw assy 0A335 27-51-33 RFQ
7822108 linearmotion ball screw assy 0A335 27-51-33 RFQ
790270-1/-13 hamilton sundstrand shutoff valve 99167 36-12-09 RFQ
790270-12 hamilton sundstrand shutoff valve 99167 36-12-09 RFQ
790270-13 hamilton sundstrand shutoff valve 99167 36-12-09 RFQ
790270-15 hamilton sundstrand shutoff valve 99167 36-12-09 RFQ
790270-3 hamilton sundstrand shutoff valve 99167 36-12-09 RFQ
790270-7 hamilton sundstrand shutoff valve 99167 36-12-09 RFQ
790270-9 hamilton sundstrand shutoff valve 99167 36-12-09 RFQ
8-345-02 eldec corporation proximity switch sensor 08748 32-09-09 RFQ
80-025-05 perkin elmer directional valve 07582 78-34-01 RFQ
802170-1 hamilton sundstrand shutoff valve 99167 36-12-14 RFQ
802170-10 hamilton sundstrand valve 99167 36-12-14 RFQ
802170-2 hamilton sundstrand shutoff valve 99167 36-12-14 RFQ
802170-5 hamilton sundstrand shutoff valve 99167 36-12-14 RFQ
802170-6 hamilton sundstrand shutoff valve 99167 36-12-14 RFQ
803300-29 hr textron emergency power reservoir 96124 52-10-02 RFQ
803300-31 hr textron emergency power reservoir 96124 52-10-02 RFQ
803300-32 hr textron emergency power reservoir 96124 52-10-02 RFQ
803300-33 hr textron emergency power reservoir 96124 52-10-02 RFQ
803300-38 hr textron emergency power reservoir 96124 52-10-02 RFQ
803300-39 hr textron emergency power reservoir 96124 52-10-02 RFQ
806373 hamilton sundstrand water collector 99167 21-72-01 RFQ
808550 hamilton sundstrand flow regulator 99167 21-61-64 RFQ
808556 hamilton sundstrand intermediate pressure check valve 99167 36-12-16 RFQ
808726-1 hamilton sundstrand bleed actuator 99167 75-31-34 RFQ
808726-2 hamilton sundstrand bleed actuator 99167 75-31-34 RFQ
813500-417 boeing airstair actuator 81205 25-10-04 RFQ
823742-1 hamilton sundstrand bleed actuator 99167 75-31-34 RFQ
894102-00 precision kinetics ballnut & screw 0KCH8 27-81-01 RFQ
894102-01 precision kinetics ballnut & screw 0KCH8 27-81-01 RFQ
898806-1 honeywell valve assy 59364 36-11-13 RFQ
93600-5005 parker hannifin inboard elevator control 92003 27-30-03 RFQ
93600-5007 parker hannifin inboard elevator control 92003 27-30-03 RFQ
93600-5009 parker hannifin inboard elevator control 92003 27-30-03 RFQ
93600-5011 parker hannifin inboard elevator control 92003 27-30-03 RFQ
93600-5013 parker hannifin inboard elevator control 92003 27-30-03 RFQ
93600-5015 parker hannifin inboard elevator control 92003 27-30-03 RFQ
93600-5017 parker hannifin inboard elevator control 92003 27-30-03 RFQ
93600-5019 parker hannifin inboard elevator control 92003 27-30-03 RFQ
93600-5021 parker hannifin inboard elevator control 92003 27-30-03 RFQ
93600-5023 parker hannifin inboard elevator control 92003 27-30-03 RFQ
93600-5025 parker hannifin inboard elevator control 92003 27-30-03 RFQ
93600-5027 parker hannifin inboard elevator control 92003 27-30-03 RFQ
93600-5029 parker hannifin inboard elevator control 92003 27-30-03 RFQ
93600-5031 parker hannifin inboard elevator control 92003 27-30-03 RFQ
93600-5033 parker hannifin inboard elevator control 92003 27-30-03 RFQ
93600-5035 parker hannifin inboard elevator control 92003 27-30-03 RFQ
93600-5037 parker hannifin inboard elevator control 92003 27-30-03 RFQ
93600-5039 parker hannifin inboard elevator control 92003 27-30-03 RFQ
93600-5041 parker hannifin inboard elevator control 92003 27-30-03 RFQ
93600-5043 parker hannifin inboard elevator control 92003 27-30-03 RFQ
93600-5045 parker hannifin inboard elevator control 92003 27-30-03 RFQ
93600-5047 parker hannifin inboard elevator control 92003 27-30-03 RFQ
93600-5049 parker hannifin inboard elevator control 92003 27-30-03 RFQ
93600-5051 parker hannifin inboard elevator control 92003 27-30-03 RFQ
93600-5053 parker hannifin inboard elevator control 92003 27-30-03 RFQ
93700-5005 parker hannifin control elevator 92003 27-30-40 RFQ
93700-5009 parker hannifin control elevator 92003 27-30-40 RFQ
93700RW1-1001 parker hannifin control elevator 92003 27-30-04 RFQ
93700RW1-1003 parker hannifin control elevator 92003 27-30-04 RFQ
93700RW1-1005 parker hannifin control elevator 92003 27-30-04 RFQ
93700RW1-1007 parker hannifin control elevator 92003 27-30-04 RFQ
9561055 aircraft braking systems brake metering unit 0B9R9 32-49-05 RFQ
95660B1 goodrich pump & engine pneumatic check valve 11599 36-11-02 RFQ
95660B2 goodrich pump & engine pneumatic check valve 11599 36-11-02 RFQ
95660C2 goodrich pump & engine pneumatic check valve 11599 36 RFQ
95670A1 goodrich pump & engine pneumatic check valve 11599 36-11-02 RFQ
95670A2 goodrich pump & engine pneumatic check valve 11599 36-11-02 RFQ
95670B2 goodrich pump & engine pneumatic check valve 11599 36 RFQ
95670B3 goodrich pump & engine pneumatic check valve 11599 36-11-02 RFQ
95670C3 goodrich pump & engine pneumatic check valve 11599 36-11-02 RFQ
A-0643-089D vickers hydraulic motorpump 62983 29-20-01 RFQ
A2764-1 marathonnorco fan cowl hold open rod 08844 71-10-36 RFQ
A2785-12 marathonnorco fan cowl hold open rod 08844 71-10-24 RFQ
A2785-16 marathonnorco fan cowl hold open rod 08844 71-10-24 RFQ
A2898-1 marathonnorco fan cowl stabilizer rod 08844 71-10-43 RFQ
A2898-3 marathonnorco fan cowl stabilizer rod 08844 71-10-43 RFQ
A60087-CD6 hydro-aire valve assy 81892 29-20-15 RFQ
A62080-1 hydro-aire hydraulic priority valve 81982 29-20-02 RFQ
A62080-2 hydro-aire hydraulic priority valve 81982 29-20-02 RFQ
A62080-3 hydro-aire hydraulic priority valve 81982 29-20-02 RFQ
A62080-4 hydro-aire hydraulic priority valve 81982 29-20-02 RFQ
A62080-5 hydro-aire hydraulic priority valve 81982 29-20-02 RFQ
A62080-6 hydro-aire hydraulic priority valve 81982 29-20-02 RFQ
A71720-1 moog inc elevator autopilot servo 94697 22-10-03 RFQ
A71720-2 moog inc elevator autopilot servo 94697 22-10-03 RFQ
A71720-3 moog inc elevator autopilot servo 94697 22-10-03 RFQ
A71720-4 moog inc elevator autopilot servo 94697 22-10-03 RFQ
A71720-5 moog inc elevator autopilot servo 94697 22-10-03 RFQ
A71720-6 moog inc elevator autopilot servo 94697 22-10-03 RFQ
AC30-0003-3 janco autobrake selector switch assy 91812 32-42-01 RFQ
ADA7127-501 boeing beam assy 81205 52 RFQ
AE93905E eaton-aeroquip ball bearing swivel joint 00624 32-32-01 RFQ
AE93905G eaton-aeroquip ball bearing swivel joint 00624 32-32-01 RFQ
AE93905H eaton-aeroquip ball bearing swivel joint 00624 32-32-01 RFQ
AE93905J eaton-aeroquip ball bearing swivel joint 00624 32-32-01 RFQ
AS-66691-L8A vickers hydraulic pump 62983 29-10-10 RFQ
AV14H5171 itt aerospace brake valve 73760 32-40-01 RFQ
AV14H5178 itt aeroapace brake valve 73760 32-40-01 RFQ
AV14H5194 itt aerospace brake valve 73760 32-40-01 RFQ
AV16E1215-2 itt aerospace gate valve 73760 29-00-11 RFQ
AV16E1215-3 itt aerospace gate valve 73760 29-00-11 RFQ
AV16E1215-4 itt aerospace gate valve 73760 29-00-11 RFQ
AV16E1296 itt aerospace gate valve 73760 29-00-11 RFQ
AV16E1305 itt aerospace gate valve 73760 29-00-11 RFQ
CS4104-1 telair pdu C1572 25 RFQ
CS4104-101 telair pdu C1572 25-58-45 RFQ
CS4104-103 telair pdu C1572 25-58-45 RFQ
CS4104-105 telair pdu C1572 25-58-45 RFQ
CS4104-107 telair pdu C1572 25-58-45 RFQ
CS4104-111 telair pdu C1572 25-58-45 RFQ
CS4104-113 telair pdu C1572 25-58-45 RFQ
D2399-2 eaton aerospace nose cargo door drive unit 72121 52-30-04 RFQ
D2399-3 eaton aerospace nose cargo door drive unit 72121 52-30-04 RFQ
D2401-10 eaton aerospace linear latch actuator 72121 52-30-05 RFQ
D2401-11 eaton aerospace linear latch actuator 72121 52-30-14 RFQ
D2401-12 eaton aerospace linear latch actuator 72121 52-30-14 RFQ
D2401-13 eaton aerospace linear latch actuator 72121 52-30-14 RFQ
D2401-14 eaton aerospace linear latch actuator 72121 52-30-14 RFQ
D2401-15 eaton aerospace linear latch actuator 72121 52-30-14 RFQ
D2401-16 eaton aerospace linear latch actuator 72121 52-30-14 RFQ
D2401-7 eaton aerospace linear latch actuator 72121 52-30-05 RFQ
D2401-8 eaton aerospace linear latch actuator 72121 52-30-05 RFQ
D2401-9 eaton aerospace linear latch actuator 72121 52-30-05 RFQ
D2405-3 eaton aerospace push-pull linear actuator 72121 52-30-06 RFQ
D2405-4 eaton aerospace push-pull linear actuator 72121 52-30-06 RFQ
D2405-5 eaton aerospace push-pull linear actuator 72121 52-30-06 RFQ
DL1020M186-1 simmonds precision rudder pedal steering actuator 89305 32-51-09 RFQ
DL1020M186-2 simmonds precision rudder pedal steering actuator 89305 32-51-09 RFQ
DL1020M186-4 simmonds precision rudder pedal steering actuator 89305 32-51-09 RFQ
DL1020M186-5 simmonds precision rudder pedal steering actuator 89305 32-51-09 RFQ
DL1020M186-6 simmonds precision rudder pedal steering actuator 89305 32-51-09 RFQ
DL1020M186-7 simmonds precision rudder pedal steering actuator 89305 32-51-09 RFQ
DL1326M119 simmonds precision lockout actuator 89305 27-10-02 RFQ
DL1326M119-2 simmonds precision lockout actuator 89305 27-10-02 RFQ
DL1326M167 simmonds precision linear actuator 89305 27-50-02 RFQ
DL1326M167-2 simmonds precision actuator assy 89305 27-50-02 RFQ
DL1326M99 simmonds precision actuator assy 89305 27-50-01 RFQ
DL2033M2 simmonds precision actuator assy 89305 27-62-07 RFQ
DL2033M2-2 simmonds precision actuator assy 89305 27-62-07 RFQ
DL2033M4 simmonds precision linear actuator 89305 49-15-05 RFQ
DL2033M4-1 simmonds precision linear actuator 89305 49-15-05 RFQ
DL2033M4-2 simmonds precision linear actuator 89305 49-15-05 RFQ
DL2033M4-3 simmonds precision linear actuator 89305 49-15-05 RFQ
G9051-120 parker hannifin hydraulic fuse 98441 32-40-80 RFQ
GM7184-5 kavlico transducer 22863 78-30-01 RFQ
MF1-019-3 eaton aerospace hydraulic motor 62983 27-50-07 RFQ
MF1-095-6 vickers hydraulic motor 62983 27-40-01 RFQ
R1409M10-1 plessey aerospace rotary actuator K1659 78-30-10 RFQ
R1409M12-1 plessey aerospace rotary actuator K1659 78-30-10 RFQ
R1409M13-1 plessey aerospace rotary actuator K1659 78-30-10 RFQ
R1409M5-11 plessey aerospace rotary actuator K1659 78-30-10 RFQ
R1409M5-111 plessey aerospace rotary actuator K1659 78-30-10 RFQ
R1409M5-111B plessey aerospace rotary actuator K1659 78-30-10 RFQ
R1409M7-1 plessey aerospace actuator assy K1659 78-30-10 RFQ
R1409M7-111 plessey aerospace actuator assy K1659 78-30-10 RFQ
R1409M7-111B plessey aerospace actuator assy K1659 78-30-10 RFQ
R1409M9-1 plessey aerospace rotary actuator K1659 78-30-10 RFQ
R1419M12 smiths industries electromechanical rotary actuator assy K5294 25-50-01 RFQ
R1419M13 smiths industries rotary actuator K5294 25 RFQ
R1419M14 smiths industries electromechanical rotary actuator assy K5294 25-50-01 RFQ
S315T360-40 parker hannifin thrust reverse actuator 93835 78-31-01 RFQ
S315T360-41 parker hannifin thrust reverse actuator 93835 78-31-01 RFQ
S315T360-43 parker hannifin thrust reverse actuator 93835 78-31-01 RFQ
S315T360-49 parker hannifin thrust reverse actuator 93835 78-31-01 RFQ
S315T360-52 parker hannifin thrust reverse actuator 93835 78-31-01 RFQ
S315T360-53 parker hannifin thrust reverse actuator 93835 78-31-01 RFQ
S673U001-1 goodrich actuation systems synchro shaft lock K0377 78-30-41 RFQ
S673U001-2 goodrich actuation systems synchro shaft lock K0377 78-30-42 RFQ
TY1628-03 goodrich actuation systems hydraulic control unit K0377 78-30-11 RFQ
TY1629-06 goodrich actuation systems synchronised non-locking actuator K0377 78-30-12 RFQ
TY1631-02 goodrich actuation systems dual tee piece K0377 78-30-13 RFQ
TY1632-02 goodrich actuation systems thrust reverser transmission K0377 78-30-14 RFQ
TY2080-20 goodrich actuation systems synchro shaft lock K0377 78-30-41 RFQ
TY2095-20 lucas sync-shaft lock K0377 78-30-42 RFQ
TY2630-16 goodrich actuation systems synchronised non-locking actuator K0377 78-30-16 RFQ
TY2630-20 goodrich actuation systems synchronised non-locking actuator K0377 78-30-16 RFQ
TY2630-50 goodrich actuation systems synchronised non-locking actuator K0377 78-30-16 RFQ
XW21372-11A alco controls motor-converter assy 1T059 30-42-01 RFQ
XW21372-12A alco controls motor-converter assy 1T059 30-42-01 RFQ
ZA25301-1 lucas screwshaft assembly K0377 27-81-03 RFQ
ZA25301-2 lucas screwshaft assembly K0377 27-81-03 RFQ
Request a Quote

Guaranteed quotes back within 15 minutes, 24/7 x 365

Why Choose Us?
icon
Low Price

Warrantied inventory at competitive prices

icon
Find it fast

Search the world's largest inventory of aviation components

icon
Get it fast

All inventory ready to ship from our sellers

icon
Quality guaranteed

We sell only warrantied and traceable parts

back-to-top

ASAP Logo Semiconductor's Certifications and Memberships

Thank You for Visiting Aviation Orbit.

We Hope You Choose Us as Your Low-Price, High-Quality Parts Distributor In the Future.

Request for Quote

We use cookies to ensure that we give you the best experience on our website. If you continue to use this site we will assume that you are happy with it.